createdAt,value
2022-08-26T00:01:54.594Z,7.63
2022-08-26T00:06:57.814Z,8.63
2022-08-26T00:12:02.578Z,7.10
2022-08-26T00:17:05.655Z,8.35
2022-08-26T00:22:12.083Z,8.25
2022-08-26T00:27:16.258Z,7.75
2022-08-26T00:32:20.222Z,7.38
2022-08-26T00:37:23.097Z,7.70
2022-08-26T00:42:29.147Z,7.13
2022-08-26T00:47:35.364Z,7.95
2022-08-26T00:52:41.543Z,8.13
2022-08-26T00:57:50.295Z,7.47
2022-08-26T01:02:54.829Z,7.72
2022-08-26T01:07:58.261Z,8.60
2022-08-26T01:13:07.019Z,9.02
2022-08-26T01:18:10.690Z,8.60
2022-08-26T01:23:16.869Z,9.02
2022-08-26T01:28:24.041Z,8.20
2022-08-26T01:33:31.179Z,8.30
2022-08-26T01:38:46.498Z,8.63
2022-08-26T01:43:53.630Z,8.73
2022-08-26T01:48:59.743Z,8.93
2022-08-26T01:54:04.563Z,8.70
2022-08-26T01:59:12.699Z,8.35
2022-08-26T02:04:22.027Z,9.10
2022-08-26T02:09:26.811Z,8.70
2022-08-26T02:14:34.455Z,9.32
2022-08-26T02:19:41.277Z,9.77
2022-08-26T02:24:50.957Z,10.57
2022-08-26T02:29:58.163Z,9.65
2022-08-26T02:35:01.008Z,10.27
2022-08-26T02:40:07.931Z,9.15
2022-08-26T02:50:14.920Z,9.05
2022-08-26T02:55:20.866Z,8.80
2022-08-26T03:00:28.151Z,9.60
2022-08-26T03:05:31.648Z,8.85
2022-08-26T03:10:36.660Z,8.98
2022-08-26T03:15:40.541Z,9.05
2022-08-26T03:20:43.976Z,8.85
2022-08-26T03:25:51.618Z,17.45
2022-08-26T03:35:57.698Z,23.58
2022-08-26T03:41:02.092Z,25.38
2022-08-26T03:46:06.726Z,28.85
2022-08-26T03:51:13.736Z,25.17
2022-08-26T03:56:22.831Z,29.25
2022-08-26T04:01:26.698Z,31.10
2022-08-26T04:06:32.474Z,38.13
2022-08-26T04:11:39.601Z,36.58
2022-08-26T04:16:43.701Z,38.72
2022-08-26T04:21:47.782Z,44.72
2022-08-26T04:26:52.661Z,50.15
2022-08-26T04:31:56.475Z,56.08
2022-08-26T04:36:59.932Z,58.60
2022-08-26T04:42:04.275Z,61.50
2022-08-26T04:47:07.112Z,66.53
2022-08-26T04:52:09.962Z,68.45
2022-08-26T04:57:14.092Z,73.20
2022-08-26T05:02:21.224Z,88.03
2022-08-26T05:07:23.970Z,90.70
2022-08-26T05:12:29.050Z,92.10
2022-08-26T05:17:32.638Z,95.70
2022-08-26T05:22:35.633Z,101.63
2022-08-26T05:27:39.774Z,95.40
2022-08-26T05:32:42.527Z,97.43
2022-08-26T05:37:45.389Z,97.85
2022-08-26T05:42:49.516Z,96.57
2022-08-26T05:47:52.288Z,93.57
2022-08-26T05:52:55.067Z,96.10
2022-08-26T05:57:59.455Z,94.18
2022-08-26T06:03:05.770Z,97.85
2022-08-26T06:08:13.968Z,95.32
2022-08-26T06:13:20.430Z,92.93
2022-08-26T06:18:27.309Z,88.50
2022-08-26T06:23:49.231Z,93.05
2022-08-26T06:28:53.384Z,90.05
2022-08-26T06:33:58.235Z,89.75
2022-08-26T06:39:03.090Z,88.18
2022-08-26T06:44:08.460Z,85.28
2022-08-26T06:49:12.362Z,87.18
2022-08-26T06:54:15.147Z,85.03
2022-08-26T06:59:21.074Z,82.10
2022-08-26T07:04:24.993Z,88.70
2022-08-26T07:09:33.085Z,85.63
2022-08-26T07:14:37.373Z,80.32
2022-08-26T07:19:40.560Z,81.00
2022-08-26T07:24:43.916Z,80.20
2022-08-26T07:29:48.138Z,77.03
2022-08-26T07:34:51.724Z,76.22
2022-08-26T07:39:54.534Z,79.95
2022-08-26T07:44:58.795Z,74.38
2022-08-26T07:50:01.735Z,75.18
2022-08-26T07:55:07.639Z,77.20
2022-08-26T08:00:15.934Z,75.75
2022-08-26T08:05:22.621Z,76.70
2022-08-26T08:10:30.991Z,78.47
2022-08-26T08:15:37.352Z,75.88
2022-08-26T08:20:44.695Z,79.03
2022-08-26T08:25:50.561Z,76.18
2022-08-26T08:30:55.495Z,81.18
2022-08-26T08:35:58.577Z,73.25
2022-08-26T08:41:01.407Z,72.60
2022-08-26T08:46:13.715Z,70.43
2022-08-26T08:51:24.600Z,70.65
2022-08-26T08:56:31.901Z,72.25
2022-08-26T09:01:48.450Z,68.82
2022-08-26T09:12:10.257Z,67.15
2022-08-26T09:17:22.159Z,67.80
2022-08-26T09:22:33.355Z,66.00
2022-08-26T09:27:38.908Z,69.82
2022-08-26T09:32:44.436Z,69.90
2022-08-26T09:37:59.538Z,67.80
2022-08-26T09:43:22.325Z,62.42
2022-08-26T09:48:36.345Z,56.47
2022-08-26T09:53:53.025Z,54.30
2022-08-26T10:04:10.452Z,53.75
2022-08-26T10:09:19.119Z,51.08
2022-08-26T10:14:27.124Z,51.28
2022-08-26T10:19:55.957Z,45.70
2022-08-26T10:25:03.275Z,45.63
2022-08-26T10:30:11.312Z,43.85
2022-08-26T10:35:19.240Z,42.95
2022-08-26T10:40:26.430Z,41.08
2022-08-26T10:45:43.572Z,36.65
2022-08-26T10:56:00.462Z,31.35
2022-08-26T11:01:32.568Z,30.30
2022-08-26T11:06:37.126Z,29.38
2022-08-26T11:11:49.065Z,28.45
2022-08-26T11:16:53.579Z,29.95
2022-08-26T11:22:06.497Z,26.70
2022-08-26T11:27:11.478Z,26.55
2022-08-26T11:32:26.181Z,25.92
2022-08-26T11:37:36.166Z,23.48
2022-08-26T11:42:45.546Z,25.65
2022-08-26T11:47:49.363Z,20.60
2022-08-26T11:53:02.027Z,20.67
2022-08-26T11:58:07.438Z,19.33
2022-08-26T12:08:24.291Z,17.80
2022-08-26T12:13:30.543Z,16.67
2022-08-26T12:18:36.158Z,17.60
2022-08-26T12:23:45.842Z,18.87
2022-08-26T12:28:53.727Z,18.85
2022-08-26T12:33:59.133Z,19.88
2022-08-26T12:39:11.439Z,18.88
2022-08-26T12:44:37.865Z,20.02
2022-08-26T12:49:42.312Z,20.05
2022-08-26T12:55:02.882Z,18.65
2022-08-26T13:00:31.788Z,20.23
2022-08-26T13:05:35.712Z,19.80
2022-08-26T13:10:42.210Z,17.30
2022-08-26T13:15:45.287Z,18.13
2022-08-26T13:20:48.073Z,14.98
2022-08-26T13:25:52.906Z,16.02
2022-08-26T13:30:55.653Z,17.15
2022-08-26T13:35:58.572Z,17.35
2022-08-26T13:41:03.584Z,14.85
2022-08-26T13:46:06.961Z,13.63
2022-08-26T13:51:09.673Z,12.40
2022-08-26T13:56:14.529Z,11.57
2022-08-26T14:01:18.334Z,9.00
2022-08-26T14:06:21.500Z,12.40
2022-08-26T14:11:26.904Z,26.15
2022-08-26T14:16:34.381Z,10.90
2022-08-26T14:21:39.559Z,8.90
2022-08-26T14:26:43.710Z,12.30
2022-08-26T14:31:46.588Z,15.55
2022-08-26T14:36:49.375Z,18.25
2022-08-26T14:41:57.429Z,20.05
2022-08-26T14:47:02.177Z,19.45
2022-08-26T14:52:05.283Z,23.85
2022-08-26T14:57:12.115Z,25.17
2022-08-26T15:02:32.847Z,23.08
2022-08-26T15:07:36.676Z,22.02
2022-08-26T15:12:41.448Z,17.48
2022-08-26T15:17:44.549Z,20.10
2022-08-26T15:22:48.033Z,15.85
2022-08-26T15:27:52.419Z,15.25
2022-08-26T15:32:55.179Z,13.53
2022-08-26T15:37:57.907Z,15.73
2022-08-26T15:43:18.412Z,15.52
2022-08-26T15:48:27.018Z,20.95
2022-08-26T15:53:32.568Z,21.20
2022-08-26T15:58:36.745Z,20.75
2022-08-26T16:03:39.639Z,18.48
2022-08-26T16:08:42.763Z,20.17
2022-08-26T16:13:47.772Z,17.23
2022-08-26T16:18:50.672Z,16.38
2022-08-26T16:23:53.460Z,19.33
2022-08-26T16:28:57.621Z,18.73
2022-08-26T16:34:00.708Z,29.73
2022-08-26T16:39:04.785Z,22.27
2022-08-26T16:44:11.355Z,25.65
2022-08-26T16:49:14.086Z,22.65
2022-08-26T16:54:17.645Z,21.35
2022-08-26T16:59:22.591Z,18.73
2022-08-26T17:04:25.328Z,17.40
2022-08-26T17:09:28.288Z,15.65
2022-08-26T17:14:33.459Z,14.35
2022-08-26T17:19:40.947Z,14.30
2022-08-26T17:24:49.795Z,12.77
2022-08-26T17:29:53.999Z,11.68
2022-08-26T17:34:56.731Z,11.85
2022-08-26T17:39:59.507Z,10.20
2022-08-26T17:45:03.631Z,10.55
2022-08-26T17:50:09.116Z,9.73
2022-08-26T17:55:14.942Z,10.55
2022-08-26T18:00:23.657Z,9.38
2022-08-26T18:05:29.855Z,9.93
2022-08-26T18:10:32.602Z,10.82
2022-08-26T18:15:39.572Z,12.18
2022-08-26T18:25:45.756Z,10.18
2022-08-26T18:30:49.941Z,9.10
2022-08-26T18:35:52.712Z,9.85
2022-08-26T18:40:55.409Z,9.10
2022-08-26T18:46:08.044Z,9.07
2022-08-26T18:51:17.090Z,9.85
2022-08-26T18:56:20.701Z,9.57
2022-08-26T19:01:27.597Z,8.93
2022-08-26T19:06:32.975Z,11.25
2022-08-26T19:11:37.620Z,10.57
2022-08-26T19:16:49.604Z,10.88
2022-08-26T19:21:53.298Z,11.27
2022-08-26T19:26:59.707Z,11.27
2022-08-26T19:32:05.344Z,10.90
2022-08-26T19:37:08.050Z,11.15
2022-08-26T19:42:10.840Z,11.65
2022-08-26T19:47:15.576Z,11.77
2022-08-26T19:52:18.831Z,11.43
2022-08-26T19:57:21.594Z,10.02
2022-08-26T20:02:25.966Z,10.15
2022-08-26T20:07:28.762Z,11.13
2022-08-26T20:12:33.276Z,10.68
2022-08-26T20:17:37.489Z,9.45
2022-08-26T20:22:40.211Z,9.27
2022-08-26T20:27:43.306Z,9.73
2022-08-26T20:32:48.390Z,8.30
2022-08-26T20:37:51.231Z,9.35
2022-08-26T20:42:53.943Z,8.15
2022-08-26T20:47:58.305Z,9.15
2022-08-26T20:53:01.249Z,9.75
2022-08-26T20:58:04.245Z,9.15
2022-08-26T21:03:08.672Z,9.75
2022-08-26T21:08:12.153Z,8.15
2022-08-26T21:13:15.097Z,8.73
2022-08-26T21:18:19.700Z,9.35
2022-08-26T21:23:25.378Z,8.75
2022-08-26T21:28:30.377Z,8.27
2022-08-26T21:33:35.136Z,9.90
2022-08-26T21:38:38.114Z,9.77
2022-08-26T21:43:41.918Z,9.60
2022-08-26T21:48:50.689Z,9.10
2022-08-26T21:53:55.177Z,10.98
2022-08-26T21:58:58.998Z,10.32
2022-08-26T22:04:04.828Z,11.27
2022-08-26T22:09:07.608Z,11.00
2022-08-26T22:14:11.373Z,11.73
2022-08-26T22:19:17.290Z,11.45
2022-08-26T22:24:21.831Z,12.20
2022-08-26T22:29:25.587Z,10.93
2022-08-26T22:34:29.657Z,10.52
2022-08-26T22:39:32.397Z,9.95
2022-08-26T22:44:36.851Z,11.73
2022-08-26T22:49:40.906Z,12.32
2022-08-26T22:54:43.720Z,10.98
2022-08-26T22:59:46.813Z,12.23
2022-08-26T23:04:52.255Z,11.35
2022-08-26T23:09:54.986Z,11.73
2022-08-26T23:14:57.915Z,10.70
2022-08-26T23:20:02.889Z,9.73
2022-08-26T23:25:08.308Z,9.88
2022-08-26T23:30:16.223Z,9.75
2022-08-26T23:35:22.524Z,9.05
2022-08-26T23:40:29.172Z,9.65
2022-08-26T23:50:57.243Z,11.32
2022-08-26T23:55:59.959Z,10.25
